sensor_id;sensor_type;location;lat;lon;timestamp;P1;durP1;ratioP1;P2;durP2;ratioP2
20832;SDS011;56075;51.264;7.150;2023-02-28T00:00:36;4.20;;;2.27;;
20832;SDS011;56075;51.264;7.150;2023-02-28T00:03:09;8.97;;;3.73;;
20832;SDS011;56075;51.264;7.150;2023-02-28T00:05:40;7.07;;;2.17;;
20832;SDS011;56075;51.264;7.150;2023-02-28T00:08:12;4.33;;;1.90;;
20832;SDS011;56075;51.264;7.150;2023-02-28T00:10:43;8.93;;;3.30;;
20832;SDS011;56075;51.264;7.150;2023-02-28T00:13:15;5.07;;;1.93;;
20832;SDS011;56075;51.264;7.150;2023-02-28T00:15:47;4.00;;;1.63;;
20832;SDS011;56075;51.264;7.150;2023-02-28T00:18:18;7.33;;;2.63;;
20832;SDS011;56075;51.264;7.150;2023-02-28T00:20:49;3.77;;;1.77;;
20832;SDS011;56075;51.264;7.150;2023-02-28T00:23:21;5.10;;;2.77;;
20832;SDS011;56075;51.264;7.150;2023-02-28T00:25:52;5.93;;;2.37;;
20832;SDS011;56075;51.264;7.150;2023-02-28T00:28:24;6.63;;;2.40;;
20832;SDS011;56075;51.264;7.150;2023-02-28T00:30:55;8.87;;;2.60;;
20832;SDS011;56075;51.264;7.150;2023-02-28T00:33:28;7.57;;;2.63;;
20832;SDS011;56075;51.264;7.150;2023-02-28T00:36:03;5.77;;;2.33;;
20832;SDS011;56075;51.264;7.150;2023-02-28T00:38:36;7.27;;;2.63;;
20832;SDS011;56075;51.264;7.150;2023-02-28T00:41:07;7.10;;;3.00;;
20832;SDS011;56075;51.264;7.150;2023-02-28T00:43:39;4.53;;;2.23;;
20832;SDS011;56075;51.264;7.150;2023-02-28T00:46:11;7.63;;;3.00;;
20832;SDS011;56075;51.264;7.150;2023-02-28T00:48:42;3.27;;;1.40;;
20832;SDS011;56075;51.264;7.150;2023-02-28T00:51:14;5.63;;;2.03;;
20832;SDS011;56075;51.264;7.150;2023-02-28T00:53:45;5.03;;;2.37;;
20832;SDS011;56075;51.264;7.150;2023-02-28T00:56:17;9.43;;;3.47;;
20832;SDS011;56075;51.264;7.150;2023-02-28T00:58:48;5.10;;;1.97;;
20832;SDS011;56075;51.264;7.150;2023-02-28T01:01:19;9.80;;;3.50;;
20832;SDS011;56075;51.264;7.150;2023-02-28T01:03:51;5.50;;;2.43;;
20832;SDS011;56075;51.264;7.150;2023-02-28T01:06:22;6.70;;;2.70;;
20832;SDS011;56075;51.264;7.150;2023-02-28T01:08:54;7.07;;;3.20;;
20832;SDS011;56075;51.264;7.150;2023-02-28T01:11:26;6.40;;;3.03;;
20832;SDS011;56075;51.264;7.150;2023-02-28T01:13:58;6.60;;;2.80;;
20832;SDS011;56075;51.264;7.150;2023-02-28T01:16:30;4.70;;;2.47;;
20832;SDS011;56075;51.264;7.150;2023-02-28T01:19:01;6.63;;;3.00;;
20832;SDS011;56075;51.264;7.150;2023-02-28T01:21:32;5.60;;;2.93;;
20832;SDS011;56075;51.264;7.150;2023-02-28T01:24:05;6.37;;;2.33;;
20832;SDS011;56075;51.264;7.150;2023-02-28T01:26:38;6.90;;;2.67;;
20832;SDS011;56075;51.264;7.150;2023-02-28T01:29:11;7.57;;;3.13;;
20832;SDS011;56075;51.264;7.150;2023-02-28T01:31:43;8.50;;;3.10;;
20832;SDS011;56075;51.264;7.150;2023-02-28T01:34:14;6.57;;;3.30;;
20832;SDS011;56075;51.264;7.150;2023-02-28T01:36:45;6.53;;;3.20;;
20832;SDS011;56075;51.264;7.150;2023-02-28T01:39:17;7.77;;;3.03;;
20832;SDS011;56075;51.264;7.150;2023-02-28T01:41:48;4.97;;;2.27;;
20832;SDS011;56075;51.264;7.150;2023-02-28T01:47:10;5.83;;;2.50;;
20832;SDS011;56075;51.264;7.150;2023-02-28T01:49:42;6.23;;;2.50;;
20832;SDS011;56075;51.264;7.150;2023-02-28T01:52:14;7.80;;;3.40;;
20832;SDS011;56075;51.264;7.150;2023-02-28T01:54:51;8.27;;;3.10;;
20832;SDS011;56075;51.264;7.150;2023-02-28T01:57:24;5.73;;;1.73;;
20832;SDS011;56075;51.264;7.150;2023-02-28T01:59:58;8.10;;;3.00;;
20832;SDS011;56075;51.264;7.150;2023-02-28T02:02:31;6.00;;;3.00;;
20832;SDS011;56075;51.264;7.150;2023-02-28T02:07:35;7.30;;;3.27;;
20832;SDS011;56075;51.264;7.150;2023-02-28T02:10:13;10.13;;;3.90;;
20832;SDS011;56075;51.264;7.150;2023-02-28T02:20:55;8.57;;;2.90;;
20832;SDS011;56075;51.264;7.150;2023-02-28T02:28:56;8.63;;;3.27;;
20832;SDS011;56075;51.264;7.150;2023-02-28T02:31:46;6.93;;;3.00;;
20832;SDS011;56075;51.264;7.150;2023-02-28T02:34:24;6.67;;;2.43;;
20832;SDS011;56075;51.264;7.150;2023-02-28T02:37:00;5.10;;;2.50;;
20832;SDS011;56075;51.264;7.150;2023-02-28T02:39:36;5.87;;;2.10;;
20832;SDS011;56075;51.264;7.150;2023-02-28T02:42:15;7.00;;;2.37;;
20832;SDS011;56075;51.264;7.150;2023-02-28T02:44:50;8.27;;;3.50;;
20832;SDS011;56075;51.264;7.150;2023-02-28T02:47:24;10.93;;;4.07;;
20832;SDS011;56075;51.264;7.150;2023-02-28T02:49:58;9.47;;;3.60;;
20832;SDS011;56075;51.264;7.150;2023-02-28T02:52:35;6.37;;;2.23;;
20832;SDS011;56075;51.264;7.150;2023-02-28T02:55:10;6.53;;;2.30;;
20832;SDS011;56075;51.264;7.150;2023-02-28T02:57:45;6.30;;;2.83;;
20832;SDS011;56075;51.264;7.150;2023-02-28T03:00:18;5.83;;;2.73;;
20832;SDS011;56075;51.264;7.150;2023-02-28T03:02:52;6.03;;;3.17;;
20832;SDS011;56075;51.264;7.150;2023-02-28T03:05:25;5.53;;;2.77;;
20832;SDS011;56075;51.264;7.150;2023-02-28T03:08:02;7.97;;;2.20;;
20832;SDS011;56075;51.264;7.150;2023-02-28T03:10:38;4.70;;;2.10;;
20832;SDS011;56075;51.264;7.150;2023-02-28T03:23:56;5.33;;;2.63;;
20832;SDS011;56075;51.264;7.150;2023-02-28T03:26:30;9.57;;;2.40;;
20832;SDS011;56075;51.264;7.150;2023-02-28T03:29:15;7.27;;;2.67;;
20832;SDS011;56075;51.264;7.150;2023-02-28T03:31:57;5.97;;;2.50;;
20832;SDS011;56075;51.264;7.150;2023-02-28T03:34:32;7.47;;;3.10;;
20832;SDS011;56075;51.264;7.150;2023-02-28T03:37:07;5.17;;;2.60;;
20832;SDS011;56075;51.264;7.150;2023-02-28T03:39:41;6.43;;;2.83;;
20832;SDS011;56075;51.264;7.150;2023-02-28T03:42:15;5.03;;;2.47;;
20832;SDS011;56075;51.264;7.150;2023-02-28T03:44:50;5.27;;;2.57;;
20832;SDS011;56075;51.264;7.150;2023-02-28T03:47:27;5.97;;;2.63;;
20832;SDS011;56075;51.264;7.150;2023-02-28T03:50:05;6.63;;;2.63;;
20832;SDS011;56075;51.264;7.150;2023-02-28T03:52:49;8.20;;;3.73;;
20832;SDS011;56075;51.264;7.150;2023-02-28T03:55:21;5.20;;;2.30;;
20832;SDS011;56075;51.264;7.150;2023-02-28T03:58:04;9.30;;;2.80;;
20832;SDS011;56075;51.264;7.150;2023-02-28T04:00:46;7.23;;;2.53;;
20832;SDS011;56075;51.264;7.150;2023-02-28T04:03:20;6.40;;;2.73;;
20832;SDS011;56075;51.264;7.150;2023-02-28T04:05:52;7.93;;;3.17;;
20832;SDS011;56075;51.264;7.150;2023-02-28T04:08:24;5.43;;;2.63;;
20832;SDS011;56075;51.264;7.150;2023-02-28T04:10:57;7.73;;;3.00;;
20832;SDS011;56075;51.264;7.150;2023-02-28T04:13:30;4.97;;;2.40;;
20832;SDS011;56075;51.264;7.150;2023-02-28T04:16:01;6.20;;;2.30;;
20832;SDS011;56075;51.264;7.150;2023-02-28T04:18:42;4.40;;;2.37;;
20832;SDS011;56075;51.264;7.150;2023-02-28T04:21:13;7.27;;;2.80;;
20832;SDS011;56075;51.264;7.150;2023-02-28T04:23:45;9.33;;;3.60;;
20832;SDS011;56075;51.264;7.150;2023-02-28T04:26:16;4.03;;;2.07;;
20832;SDS011;56075;51.264;7.150;2023-02-28T04:28:48;8.57;;;3.10;;
20832;SDS011;56075;51.264;7.150;2023-02-28T04:31:19;8.70;;;3.80;;
20832;SDS011;56075;51.264;7.150;2023-02-28T04:33:50;6.33;;;2.73;;
20832;SDS011;56075;51.264;7.150;2023-02-28T04:36:22;9.60;;;2.97;;
20832;SDS011;56075;51.264;7.150;2023-02-28T04:38:54;8.47;;;3.30;;
20832;SDS011;56075;51.264;7.150;2023-02-28T04:41:25;10.67;;;3.27;;
20832;SDS011;56075;51.264;7.150;2023-02-28T04:43:57;8.27;;;3.17;;
20832;SDS011;56075;51.264;7.150;2023-02-28T04:46:28;7.53;;;3.00;;
20832;SDS011;56075;51.264;7.150;2023-02-28T04:49:00;8.47;;;3.40;;
20832;SDS011;56075;51.264;7.150;2023-02-28T04:51:32;9.17;;;3.70;;
20832;SDS011;56075;51.264;7.150;2023-02-28T04:54:03;7.03;;;3.43;;
20832;SDS011;56075;51.264;7.150;2023-02-28T04:56:35;7.10;;;2.90;;
20832;SDS011;56075;51.264;7.150;2023-02-28T04:59:06;8.17;;;3.30;;
20832;SDS011;56075;51.264;7.150;2023-02-28T05:01:38;7.57;;;3.17;;
20832;SDS011;56075;51.264;7.150;2023-02-28T05:04:09;6.83;;;2.83;;
20832;SDS011;56075;51.264;7.150;2023-02-28T05:06:40;5.87;;;2.87;;
20832;SDS011;56075;51.264;7.150;2023-02-28T05:09:12;9.00;;;3.27;;
20832;SDS011;56075;51.264;7.150;2023-02-28T05:11:43;5.67;;;2.37;;
20832;SDS011;56075;51.264;7.150;2023-02-28T05:14:15;6.97;;;2.33;;
20832;SDS011;56075;51.264;7.150;2023-02-28T05:16:46;6.63;;;2.63;;
20832;SDS011;56075;51.264;7.150;2023-02-28T05:19:18;7.63;;;2.60;;
20832;SDS011;56075;51.264;7.150;2023-02-28T05:21:50;7.33;;;2.70;;
20832;SDS011;56075;51.264;7.150;2023-02-28T05:24:22;3.63;;;1.97;;
20832;SDS011;56075;51.264;7.150;2023-02-28T05:26:54;5.00;;;2.47;;
20832;SDS011;56075;51.264;7.150;2023-02-28T05:29:25;3.60;;;2.00;;
20832;SDS011;56075;51.264;7.150;2023-02-28T05:31:57;4.67;;;2.27;;
20832;SDS011;56075;51.264;7.150;2023-02-28T05:34:28;7.10;;;3.30;;
20832;SDS011;56075;51.264;7.150;2023-02-28T05:37:00;7.13;;;2.73;;
20832;SDS011;56075;51.264;7.150;2023-02-28T05:39:31;6.37;;;2.83;;
20832;SDS011;56075;51.264;7.150;2023-02-28T05:42:03;4.57;;;2.20;;
20832;SDS011;56075;51.264;7.150;2023-02-28T05:44:35;6.67;;;2.70;;
20832;SDS011;56075;51.264;7.150;2023-02-28T05:47:06;4.23;;;2.37;;
20832;SDS011;56075;51.264;7.150;2023-02-28T05:49:38;6.53;;;2.37;;
20832;SDS011;56075;51.264;7.150;2023-02-28T05:52:09;6.30;;;2.83;;
20832;SDS011;56075;51.264;7.150;2023-02-28T05:54:41;7.60;;;3.40;;
20832;SDS011;56075;51.264;7.150;2023-02-28T05:57:12;6.00;;;2.97;;
20832;SDS011;56075;51.264;7.150;2023-02-28T05:59:43;4.03;;;1.93;;
20832;SDS011;56075;51.264;7.150;2023-02-28T06:02:15;6.13;;;2.50;;
20832;SDS011;56075;51.264;7.150;2023-02-28T06:04:47;6.80;;;2.73;;
20832;SDS011;56075;51.264;7.150;2023-02-28T06:07:18;5.47;;;2.20;;
20832;SDS011;56075;51.264;7.150;2023-02-28T06:09:50;4.63;;;1.67;;
20832;SDS011;56075;51.264;7.150;2023-02-28T06:12:21;5.90;;;2.43;;
20832;SDS011;56075;51.264;7.150;2023-02-28T06:14:52;7.13;;;2.30;;
20832;SDS011;56075;51.264;7.150;2023-02-28T06:17:24;7.03;;;2.23;;
20832;SDS011;56075;51.264;7.150;2023-02-28T06:19:55;5.40;;;2.47;;
20832;SDS011;56075;51.264;7.150;2023-02-28T06:22:27;9.37;;;2.90;;
20832;SDS011;56075;51.264;7.150;2023-02-28T06:24:58;8.00;;;3.60;;
20832;SDS011;56075;51.264;7.150;2023-02-28T06:27:31;7.80;;;3.40;;
20832;SDS011;56075;51.264;7.150;2023-02-28T06:30:03;7.63;;;2.60;;
20832;SDS011;56075;51.264;7.150;2023-02-28T06:32:34;7.10;;;2.63;;
20832;SDS011;56075;51.264;7.150;2023-02-28T06:35:06;6.60;;;2.37;;
20832;SDS011;56075;51.264;7.150;2023-02-28T06:37:38;7.17;;;2.90;;
20832;SDS011;56075;51.264;7.150;2023-02-28T06:40:09;7.40;;;2.10;;
20832;SDS011;56075;51.264;7.150;2023-02-28T06:42:41;5.03;;;1.60;;
20832;SDS011;56075;51.264;7.150;2023-02-28T06:45:13;8.53;;;2.50;;
20832;SDS011;56075;51.264;7.150;2023-02-28T06:47:44;4.07;;;2.00;;
20832;SDS011;56075;51.264;7.150;2023-02-28T06:50:16;6.80;;;3.37;;
20832;SDS011;56075;51.264;7.150;2023-02-28T06:52:50;12.53;;;3.33;;
20832;SDS011;56075;51.264;7.150;2023-02-28T06:55:24;4.77;;;1.87;;
20832;SDS011;56075;51.264;7.150;2023-02-28T06:57:56;8.00;;;3.40;;
20832;SDS011;56075;51.264;7.150;2023-02-28T07:00:27;2.47;;;1.50;;
20832;SDS011;56075;51.264;7.150;2023-02-28T07:02:59;8.67;;;3.13;;
20832;SDS011;56075;51.264;7.150;2023-02-28T07:05:30;10.87;;;2.20;;
20832;SDS011;56075;51.264;7.150;2023-02-28T07:08:03;6.47;;;3.03;;
20832;SDS011;56075;51.264;7.150;2023-02-28T07:10:36;5.97;;;2.70;;
20832;SDS011;56075;51.264;7.150;2023-02-28T07:13:08;8.97;;;3.30;;
20832;SDS011;56075;51.264;7.150;2023-02-28T07:15:40;6.60;;;3.00;;
20832;SDS011;56075;51.264;7.150;2023-02-28T07:18:11;4.63;;;2.03;;
20832;SDS011;56075;51.264;7.150;2023-02-28T07:20:42;6.13;;;2.37;;
20832;SDS011;56075;51.264;7.150;2023-02-28T07:23:14;3.43;;;1.97;;
20832;SDS011;56075;51.264;7.150;2023-02-28T07:25:45;8.87;;;3.03;;
20832;SDS011;56075;51.264;7.150;2023-02-28T07:28:17;11.90;;;3.53;;
20832;SDS011;56075;51.264;7.150;2023-02-28T07:30:48;9.60;;;2.50;;
20832;SDS011;56075;51.264;7.150;2023-02-28T07:33:20;11.77;;;3.30;;
20832;SDS011;56075;51.264;7.150;2023-02-28T07:35:51;15.43;;;3.30;;
20832;SDS011;56075;51.264;7.150;2023-02-28T07:38:23;4.57;;;2.20;;
20832;SDS011;56075;51.264;7.150;2023-02-28T07:40:54;4.87;;;2.43;;
20832;SDS011;56075;51.264;7.150;2023-02-28T07:43:25;4.03;;;2.20;;
20832;SDS011;56075;51.264;7.150;2023-02-28T07:46:07;8.57;;;3.37;;
20832;SDS011;56075;51.264;7.150;2023-02-28T07:48:39;7.53;;;2.63;;
20832;SDS011;56075;51.264;7.150;2023-02-28T07:51:11;5.63;;;2.40;;
20832;SDS011;56075;51.264;7.150;2023-02-28T07:53:42;9.73;;;2.27;;
20832;SDS011;56075;51.264;7.150;2023-02-28T07:56:14;4.20;;;2.20;;
20832;SDS011;56075;51.264;7.150;2023-02-28T07:58:45;6.63;;;2.53;;
20832;SDS011;56075;51.264;7.150;2023-02-28T08:01:17;5.63;;;1.93;;
20832;SDS011;56075;51.264;7.150;2023-02-28T08:03:49;5.20;;;2.57;;
20832;SDS011;56075;51.264;7.150;2023-02-28T08:06:21;4.43;;;2.03;;
20832;SDS011;56075;51.264;7.150;2023-02-28T08:08:53;7.13;;;2.10;;
20832;SDS011;56075;51.264;7.150;2023-02-28T08:11:26;4.47;;;2.03;;
20832;SDS011;56075;51.264;7.150;2023-02-28T08:13:57;6.40;;;1.93;;
20832;SDS011;56075;51.264;7.150;2023-02-28T08:16:29;6.60;;;2.60;;
20832;SDS011;56075;51.264;7.150;2023-02-28T08:19:00;6.10;;;2.30;;
20832;SDS011;56075;51.264;7.150;2023-02-28T08:21:32;7.93;;;2.40;;
20832;SDS011;56075;51.264;7.150;2023-02-28T08:24:03;3.53;;;1.50;;
20832;SDS011;56075;51.264;7.150;2023-02-28T08:26:35;4.93;;;1.70;;
20832;SDS011;56075;51.264;7.150;2023-02-28T08:29:06;4.93;;;1.57;;
20832;SDS011;56075;51.264;7.150;2023-02-28T08:31:38;4.47;;;1.83;;
20832;SDS011;56075;51.264;7.150;2023-02-28T08:34:10;3.10;;;1.47;;
20832;SDS011;56075;51.264;7.150;2023-02-28T08:36:42;4.37;;;1.90;;
20832;SDS011;56075;51.264;7.150;2023-02-28T08:39:15;4.23;;;1.70;;
20832;SDS011;56075;51.264;7.150;2023-02-28T08:41:46;2.07;;;1.10;;
20832;SDS011;56075;51.264;7.150;2023-02-28T08:44:18;4.57;;;1.60;;
20832;SDS011;56075;51.264;7.150;2023-02-28T08:46:49;3.03;;;1.40;;
20832;SDS011;56075;51.264;7.150;2023-02-28T08:49:21;2.67;;;1.57;;
20832;SDS011;56075;51.264;7.150;2023-02-28T08:51:52;6.80;;;1.50;;
20832;SDS011;56075;51.264;7.150;2023-02-28T08:54:25;2.63;;;1.13;;
20832;SDS011;56075;51.264;7.150;2023-02-28T08:56:59;4.10;;;1.10;;
20832;SDS011;56075;51.264;7.150;2023-02-28T08:59:31;4.70;;;1.63;;
20832;SDS011;56075;51.264;7.150;2023-02-28T09:02:03;2.57;;;1.33;;
20832;SDS011;56075;51.264;7.150;2023-02-28T09:04:34;3.23;;;1.47;;
20832;SDS011;56075;51.264;7.150;2023-02-28T09:07:06;3.77;;;1.30;;
20832;SDS011;56075;51.264;7.150;2023-02-28T09:09:37;3.10;;;1.40;;
20832;SDS011;56075;51.264;7.150;2023-02-28T09:12:24;2.50;;;1.30;;
20832;SDS011;56075;51.264;7.150;2023-02-28T09:14:55;3.17;;;1.23;;
20832;SDS011;56075;51.264;7.150;2023-02-28T09:17:27;3.00;;;1.57;;
20832;SDS011;56075;51.264;7.150;2023-02-28T09:19:58;3.27;;;1.20;;
20832;SDS011;56075;51.264;7.150;2023-02-28T09:22:30;2.87;;;1.47;;
20832;SDS011;56075;51.264;7.150;2023-02-28T09:25:01;3.37;;;1.30;;
20832;SDS011;56075;51.264;7.150;2023-02-28T09:27:33;4.10;;;1.33;;
20832;SDS011;56075;51.264;7.150;2023-02-28T09:30:05;3.90;;;1.37;;
20832;SDS011;56075;51.264;7.150;2023-02-28T09:32:37;4.63;;;1.27;;
20832;SDS011;56075;51.264;7.150;2023-02-28T09:35:08;3.20;;;1.40;;
20832;SDS011;56075;51.264;7.150;2023-02-28T09:37:44;3.13;;;1.37;;
20832;SDS011;56075;51.264;7.150;2023-02-28T09:40:16;2.67;;;1.40;;
20832;SDS011;56075;51.264;7.150;2023-02-28T09:42:49;3.33;;;1.48;;
20832;SDS011;56075;51.264;7.150;2023-02-28T09:45:27;3.87;;;1.53;;
20832;SDS011;56075;51.264;7.150;2023-02-28T09:48:01;5.33;;;1.80;;
20832;SDS011;56075;51.264;7.150;2023-02-28T09:50:45;6.27;;;1.50;;
20832;SDS011;56075;51.264;7.150;2023-02-28T09:55:53;5.90;;;1.80;;
20832;SDS011;56075;51.264;7.150;2023-02-28T09:58:28;4.23;;;1.30;;
20832;SDS011;56075;51.264;7.150;2023-02-28T10:06:46;3.87;;;1.03;;
20832;SDS011;56075;51.264;7.150;2023-02-28T10:11:51;3.43;;;1.33;;
20832;SDS011;56075;51.264;7.150;2023-02-28T10:14:24;2.63;;;1.30;;
20832;SDS011;56075;51.264;7.150;2023-02-28T10:24:59;2.37;;;1.00;;
20832;SDS011;56075;51.264;7.150;2023-02-28T10:27:33;3.47;;;1.30;;
20832;SDS011;56075;51.264;7.150;2023-02-28T10:30:05;1.50;;;0.90;;
20832;SDS011;56075;51.264;7.150;2023-02-28T10:32:37;5.77;;;1.77;;
20832;SDS011;56075;51.264;7.150;2023-02-28T10:37:41;2.23;;;1.30;;
20832;SDS011;56075;51.264;7.150;2023-02-28T10:42:58;2.77;;;1.20;;
20832;SDS011;56075;51.264;7.150;2023-02-28T10:45:34;3.60;;;1.30;;
20832;SDS011;56075;51.264;7.150;2023-02-28T10:56:08;1.77;;;1.10;;
20832;SDS011;56075;51.264;7.150;2023-02-28T11:04:03;2.43;;;1.10;;
20832;SDS011;56075;51.264;7.150;2023-02-28T11:06:34;1.80;;;1.10;;
20832;SDS011;56075;51.264;7.150;2023-02-28T11:09:15;1.70;;;0.90;;
20832;SDS011;56075;51.264;7.150;2023-02-28T11:11:49;3.17;;;1.20;;
20832;SDS011;56075;51.264;7.150;2023-02-28T11:14:27;3.23;;;1.30;;
20832;SDS011;56075;51.264;7.150;2023-02-28T11:17:21;2.73;;;1.30;;
20832;SDS011;56075;51.264;7.150;2023-02-28T11:19:52;1.40;;;1.10;;
20832;SDS011;56075;51.264;7.150;2023-02-28T11:22:25;1.97;;;1.10;;
20832;SDS011;56075;51.264;7.150;2023-02-28T11:25:02;3.17;;;1.13;;
20832;SDS011;56075;51.264;7.150;2023-02-28T11:27:42;2.83;;;1.20;;
20832;SDS011;56075;51.264;7.150;2023-02-28T11:30:25;2.27;;;1.10;;
20832;SDS011;56075;51.264;7.150;2023-02-28T11:35:53;1.90;;;1.17;;
20832;SDS011;56075;51.264;7.150;2023-02-28T11:38:27;1.83;;;1.00;;
20832;SDS011;56075;51.264;7.150;2023-02-28T11:46:38;5.37;;;1.63;;
20832;SDS011;56075;51.264;7.150;2023-02-28T11:52:33;4.67;;;1.60;;
20832;SDS011;56075;51.264;7.150;2023-02-28T11:54:57;4.47;;;1.23;;
20832;SDS011;56075;51.264;7.150;2023-02-28T12:00:30;3.23;;;1.40;;
20832;SDS011;56075;51.264;7.150;2023-02-28T12:03:27;4.40;;;1.37;;
20832;SDS011;56075;51.264;7.150;2023-02-28T12:16:46;5.53;;;1.67;;
20832;SDS011;56075;51.264;7.150;2023-02-28T12:20:05;3.60;;;1.10;;
20832;SDS011;56075;51.264;7.150;2023-02-28T12:22:37;4.83;;;1.53;;
20832;SDS011;56075;51.264;7.150;2023-02-28T12:27:48;5.93;;;1.60;;
20832;SDS011;56075;51.264;7.150;2023-02-28T12:30:27;2.73;;;1.50;;
20832;SDS011;56075;51.264;7.150;2023-02-28T12:33:05;3.03;;;1.30;;
20832;SDS011;56075;51.264;7.150;2023-02-28T12:35:43;2.40;;;1.43;;
20832;SDS011;56075;51.264;7.150;2023-02-28T12:40:54;3.77;;;1.40;;
20832;SDS011;56075;51.264;7.150;2023-02-28T12:43:36;2.87;;;1.37;;
20832;SDS011;56075;51.264;7.150;2023-02-28T12:46:19;3.60;;;1.53;;
20832;SDS011;56075;51.264;7.150;2023-02-28T12:48:53;3.10;;;1.40;;
20832;SDS011;56075;51.264;7.150;2023-02-28T12:51:27;2.93;;;1.30;;
20832;SDS011;56075;51.264;7.150;2023-02-28T12:57:16;3.30;;;1.50;;
20832;SDS011;56075;51.264;7.150;2023-02-28T13:02:41;5.40;;;1.50;;
20832;SDS011;56075;51.264;7.150;2023-02-28T13:05:29;2.97;;;1.73;;
20832;SDS011;56075;51.264;7.150;2023-02-28T13:10:44;3.80;;;1.60;;
20832;SDS011;56075;51.264;7.150;2023-02-28T13:13:18;4.00;;;1.87;;
20832;SDS011;56075;51.264;7.150;2023-02-28T13:18:37;3.67;;;1.67;;
20832;SDS011;56075;51.264;7.150;2023-02-28T13:21:23;3.23;;;1.83;;
20832;SDS011;56075;51.264;7.150;2023-02-28T13:40:24;6.17;;;1.53;;
20832;SDS011;56075;51.264;7.150;2023-02-28T13:42:57;4.20;;;1.50;;
20832;SDS011;56075;51.264;7.150;2023-02-28T13:45:29;3.90;;;1.80;;
20832;SDS011;56075;51.264;7.150;2023-02-28T13:48:17;3.47;;;1.60;;
20832;SDS011;56075;51.264;7.150;2023-02-28T13:50:50;4.10;;;1.60;;
20832;SDS011;56075;51.264;7.150;2023-02-28T13:56:31;4.23;;;1.80;;
20832;SDS011;56075;51.264;7.150;2023-02-28T14:02:31;4.13;;;1.70;;
20832;SDS011;56075;51.264;7.150;2023-02-28T14:05:18;3.63;;;1.80;;
20832;SDS011;56075;51.264;7.150;2023-02-28T14:07:57;9.07;;;1.80;;
20832;SDS011;56075;51.264;7.150;2023-02-28T14:10:31;4.10;;;1.60;;
20832;SDS011;56075;51.264;7.150;2023-02-28T14:13:36;5.03;;;2.00;;
20832;SDS011;56075;51.264;7.150;2023-02-28T14:16:16;2.90;;;1.87;;
20832;SDS011;56075;51.264;7.150;2023-02-28T14:18:56;3.17;;;2.03;;
20832;SDS011;56075;51.264;7.150;2023-02-28T14:21:32;3.57;;;1.80;;
20832;SDS011;56075;51.264;7.150;2023-02-28T14:37:56;4.45;;;1.77;;
20832;SDS011;56075;51.264;7.150;2023-02-28T14:40:29;3.28;;;1.60;;
20832;SDS011;56075;51.264;7.150;2023-02-28T14:43:03;4.35;;;1.80;;
20832;SDS011;56075;51.264;7.150;2023-02-28T14:45:36;4.32;;;2.00;;
20832;SDS011;56075;51.264;7.150;2023-02-28T14:48:10;2.47;;;1.77;;
20832;SDS011;56075;51.264;7.150;2023-02-28T14:50:42;2.83;;;1.80;;
20832;SDS011;56075;51.264;7.150;2023-02-28T14:53:22;2.65;;;1.50;;
20832;SDS011;56075;51.264;7.150;2023-02-28T14:55:56;3.50;;;2.10;;
20832;SDS011;56075;51.264;7.150;2023-02-28T14:58:29;4.50;;;1.90;;
20832;SDS011;56075;51.264;7.150;2023-02-28T15:01:03;4.38;;;1.92;;
20832;SDS011;56075;51.264;7.150;2023-02-28T15:03:35;4.20;;;1.80;;
20832;SDS011;56075;51.264;7.150;2023-02-28T15:06:13;5.47;;;1.90;;
20832;SDS011;56075;51.264;7.150;2023-02-28T15:08:48;3.42;;;1.60;;
20832;SDS011;56075;51.264;7.150;2023-02-28T15:11:37;3.58;;;2.00;;
20832;SDS011;56075;51.264;7.150;2023-02-28T15:14:13;6.47;;;1.90;;
20832;SDS011;56075;51.264;7.150;2023-02-28T15:16:51;6.97;;;2.42;;
20832;SDS011;56075;51.264;7.150;2023-02-28T15:19:32;5.30;;;2.10;;
20832;SDS011;56075;51.264;7.150;2023-02-28T15:22:08;3.50;;;1.95;;
20832;SDS011;56075;51.264;7.150;2023-02-28T15:24:48;4.88;;;2.28;;
20832;SDS011;56075;51.264;7.150;2023-02-28T15:27:25;2.42;;;1.88;;
20832;SDS011;56075;51.264;7.150;2023-02-28T15:29:59;3.17;;;1.83;;
20832;SDS011;56075;51.264;7.150;2023-02-28T15:32:36;4.75;;;2.00;;
20832;SDS011;56075;51.264;7.150;2023-02-28T15:35:26;3.30;;;2.00;;
20832;SDS011;56075;51.264;7.150;2023-02-28T15:40:45;3.58;;;1.88;;
20832;SDS011;56075;51.264;7.150;2023-02-28T15:46:04;4.45;;;1.95;;
20832;SDS011;56075;51.264;7.150;2023-02-28T15:48:53;4.50;;;2.05;;
20832;SDS011;56075;51.264;7.150;2023-02-28T15:51:33;3.47;;;1.80;;
20832;SDS011;56075;51.264;7.150;2023-02-28T15:54:08;5.80;;;2.17;;
20832;SDS011;56075;51.264;7.150;2023-02-28T15:56:46;5.65;;;2.30;;
20832;SDS011;56075;51.264;7.150;2023-02-28T15:59:21;3.97;;;2.03;;
20832;SDS011;56075;51.264;7.150;2023-02-28T16:02:15;3.55;;;1.92;;
20832;SDS011;56075;51.264;7.150;2023-02-28T16:07:32;3.90;;;2.05;;
20832;SDS011;56075;51.264;7.150;2023-02-28T16:10:04;5.57;;;2.22;;
20832;SDS011;56075;51.264;7.150;2023-02-28T16:12:37;5.72;;;1.90;;
20832;SDS011;56075;51.264;7.150;2023-02-28T16:15:23;4.45;;;2.47;;
20832;SDS011;56075;51.264;7.150;2023-02-28T16:17:59;4.22;;;2.13;;
20832;SDS011;56075;51.264;7.150;2023-02-28T16:20:30;4.57;;;1.85;;
20832;SDS011;56075;51.264;7.150;2023-02-28T16:23:01;8.13;;;2.60;;
20832;SDS011;56075;51.264;7.150;2023-02-28T16:25:34;4.85;;;2.35;;
20832;SDS011;56075;51.264;7.150;2023-02-28T16:28:12;3.78;;;2.00;;
20832;SDS011;56075;51.264;7.150;2023-02-28T16:30:51;6.60;;;2.40;;
20832;SDS011;56075;51.264;7.150;2023-02-28T16:33:23;3.78;;;2.22;;
20832;SDS011;56075;51.264;7.150;2023-02-28T16:35:54;3.47;;;2.13;;
20832;SDS011;56075;51.264;7.150;2023-02-28T16:38:26;5.53;;;2.30;;
20832;SDS011;56075;51.264;7.150;2023-02-28T16:40:58;4.97;;;2.50;;
20832;SDS011;56075;51.264;7.150;2023-02-28T16:43:30;5.03;;;2.53;;
20832;SDS011;56075;51.264;7.150;2023-02-28T16:46:01;4.80;;;2.60;;
20832;SDS011;56075;51.264;7.150;2023-02-28T16:48:37;3.73;;;2.37;;
20832;SDS011;56075;51.264;7.150;2023-02-28T16:51:11;5.80;;;2.95;;
20832;SDS011;56075;51.264;7.150;2023-02-28T16:53:43;9.40;;;2.80;;
20832;SDS011;56075;51.264;7.150;2023-02-28T16:56:19;6.20;;;2.90;;
20832;SDS011;56075;51.264;7.150;2023-02-28T16:58:51;4.70;;;2.60;;
20832;SDS011;56075;51.264;7.150;2023-02-28T17:01:24;5.33;;;2.67;;
20832;SDS011;56075;51.264;7.150;2023-02-28T17:03:57;5.00;;;2.43;;
20832;SDS011;56075;51.264;7.150;2023-02-28T17:06:29;5.03;;;2.27;;
20832;SDS011;56075;51.264;7.150;2023-02-28T17:09:00;5.10;;;2.93;;
20832;SDS011;56075;51.264;7.150;2023-02-28T17:11:32;4.93;;;2.60;;
20832;SDS011;56075;51.264;7.150;2023-02-28T17:14:03;6.17;;;2.90;;
20832;SDS011;56075;51.264;7.150;2023-02-28T17:16:35;5.67;;;2.70;;
20832;SDS011;56075;51.264;7.150;2023-02-28T17:19:14;4.37;;;2.47;;
20832;SDS011;56075;51.264;7.150;2023-02-28T17:21:45;6.57;;;3.40;;
20832;SDS011;56075;51.264;7.150;2023-02-28T17:24:17;6.33;;;2.50;;
20832;SDS011;56075;51.264;7.150;2023-02-28T17:26:48;4.87;;;2.20;;
20832;SDS011;56075;51.264;7.150;2023-02-28T17:29:20;5.87;;;2.90;;
20832;SDS011;56075;51.264;7.150;2023-02-28T17:31:52;6.67;;;2.70;;
20832;SDS011;56075;51.264;7.150;2023-02-28T17:34:24;6.30;;;2.37;;
20832;SDS011;56075;51.264;7.150;2023-02-28T17:36:55;9.83;;;3.07;;
20832;SDS011;56075;51.264;7.150;2023-02-28T17:39:27;5.33;;;2.63;;
20832;SDS011;56075;51.264;7.150;2023-02-28T17:41:59;5.90;;;2.80;;
20832;SDS011;56075;51.264;7.150;2023-02-28T17:44:30;9.73;;;2.80;;
20832;SDS011;56075;51.264;7.150;2023-02-28T17:47:01;5.37;;;2.47;;
20832;SDS011;56075;51.264;7.150;2023-02-28T17:49:33;3.47;;;2.20;;
20832;SDS011;56075;51.264;7.150;2023-02-28T17:52:04;5.53;;;2.47;;
20832;SDS011;56075;51.264;7.150;2023-02-28T17:54:36;4.97;;;2.90;;
20832;SDS011;56075;51.264;7.150;2023-02-28T17:57:11;6.90;;;2.70;;
20832;SDS011;56075;51.264;7.150;2023-02-28T17:59:43;5.17;;;2.53;;
20832;SDS011;56075;51.264;7.150;2023-02-28T18:02:15;6.07;;;2.63;;